DAL1454 SEQM-KMIA
Flight info
| Callsign | DAL1454 |
|---|---|
| Flight time | N/A |
| Altitude | 34000 |
| Route | NEGAL3A NEGAL UM674 TBG UL780 VUNIB/N0457F360 UL780 ULBAS UG437 ALTIB UM779 ZEUSS VIICE2 |
| Aircraft | A320/M-SDE3FGHIRWY/LB1 |
Departure
| Time | 2026-04-28 21:14 |
|---|---|
| Airport | Mariscal Sucre International Airport (SEQM) |
Arrival
| Time | N/A |
|---|---|
| Airport | Miami International Airport (KMIA) |
| Time | Latitude | Longitude | Altitude | Speed | Heading |
|---|---|---|---|---|---|
| 2026-04-28 20:11 | -0.12326 | -78.35928 | 7834 ft | 0 kts | 267° |
| 2026-04-28 21:03 | -0.12325 | -78.35910 | 7841 ft | 3 kts | 265° |
| 2026-04-28 21:03 | -0.12322 | -78.35887 | 7835 ft | 3 kts | 259° |
| 2026-04-28 21:03 | -0.12317 | -78.35865 | 7835 ft | 3 kts | 243° |
| 2026-04-28 21:03 | -0.12304 | -78.35848 | 7836 ft | 3 kts | 199° |
| 2026-04-28 21:04 | -0.12293 | -78.35846 | 7838 ft | 1 kts | 177° |
| 2026-04-28 21:04 | -0.12292 | -78.35846 | 7838 ft | 0 kts | 177° |
| 2026-04-28 21:06 | -0.12321 | -78.35844 | 7836 ft | 10 kts | 172° |
| 2026-04-28 21:06 | -0.12361 | -78.35809 | 7840 ft | 7 kts | 107° |
| 2026-04-28 21:06 | -0.12360 | -78.35730 | 7835 ft | 9 kts | 87° |
| 2026-04-28 21:07 | -0.12357 | -78.35665 | 7844 ft | 9 kts | 87° |
| 2026-04-28 21:07 | -0.12383 | -78.35617 | 7843 ft | 8 kts | 151° |
| 2026-04-28 21:07 | -0.12448 | -78.35612 | 7842 ft | 12 kts | 179° |
| 2026-04-28 21:07 | -0.12581 | -78.35607 | 7854 ft | 21 kts | 178° |
| 2026-04-28 21:08 | -0.12666 | -78.35604 | 7859 ft | 16 kts | 176° |
| 2026-04-28 21:10 | -0.13526 | -78.35568 | 7888 ft | 8 kts | 178° |
| 2026-04-28 21:10 | -0.13591 | -78.35565 | 7891 ft | 16 kts | 177° |
| 2026-04-28 21:10 | -0.13724 | -78.35559 | 7896 ft | 20 kts | 179° |
| 2026-04-28 21:10 | -0.13874 | -78.35553 | 7898 ft | 23 kts | 177° |
| 2026-04-28 21:11 | -0.14036 | -78.35543 | 7908 ft | 19 kts | 180° |
| 2026-04-28 21:11 | -0.14163 | -78.35539 | 7911 ft | 16 kts | 176° |
| 2026-04-28 21:11 | -0.14229 | -78.35524 | 7916 ft | 10 kts | 146° |
| 2026-04-28 21:11 | -0.14256 | -78.35462 | 7915 ft | 11 kts | 91° |
| 2026-04-28 21:12 | -0.14242 | -78.35388 | 7917 ft | 11 kts | 59° |
| 2026-04-28 21:12 | -0.14187 | -78.35371 | 7915 ft | 4 kts | 358° |
| 2026-04-28 21:12 | -0.14181 | -78.35371 | 7913 ft | 0 kts | 358° |
| 2026-04-28 21:12 | -0.14180 | -78.35371 | 7913 ft | 3 kts | 358° |
| 2026-04-28 21:13 | -0.14028 | -78.35376 | 7905 ft | 40 kts | 358° |
| 2026-04-28 21:13 | -0.13508 | -78.35398 | 7890 ft | 109 kts | 357° |
| 2026-04-28 21:13 | -0.12542 | -78.35437 | 7854 ft | 168 kts | 358° |
| 2026-04-28 21:13 | -0.11230 | -78.35481 | 8081 ft | 196 kts | 358° |
| 2026-04-28 21:14 | -0.09872 | -78.35548 | 9042 ft | 196 kts | 356° |
| 2026-04-28 21:14 | -0.08535 | -78.35824 | 9780 ft | 197 kts | 345° |
| 2026-04-28 21:14 | -0.07195 | -78.36252 | 9992 ft | 210 kts | 342° |
| 2026-04-28 21:14 | -0.05762 | -78.36751 | 10143 ft | 226 kts | 342° |
| 2026-04-28 21:15 | -0.04220 | -78.37292 | 10259 ft | 243 kts | 342° |
| 2026-04-28 21:15 | -0.02567 | -78.37860 | 10385 ft | 260 kts | 342° |
| 2026-04-28 21:15 | -0.00815 | -78.38452 | 10483 ft | 279 kts | 342° |
| 2026-04-28 21:15 | 0.01121 | -78.39098 | 10612 ft | 300 kts | 341° |
| 2026-04-28 21:16 | 0.03171 | -78.39777 | 10700 ft | 320 kts | 341° |
| 2026-04-28 21:16 | 0.05356 | -78.40495 | 10816 ft | 340 kts | 341° |
| 2026-04-28 21:16 | 0.07649 | -78.41244 | 11124 ft | 351 kts | 342° |
| 2026-04-28 21:16 | 0.09992 | -78.42007 | 11587 ft | 357 kts | 342° |
| 2026-04-28 21:17 | 0.12364 | -78.42780 | 12089 ft | 361 kts | 343° |
| 2026-04-28 21:17 | 0.14765 | -78.43561 | 12596 ft | 365 kts | 342° |
| 2026-04-28 21:17 | 0.17136 | -78.44412 | 13098 ft | 369 kts | 341° |
| 2026-04-28 21:17 | 0.19535 | -78.45374 | 13617 ft | 374 kts | 339° |
| 2026-04-28 21:18 | 0.21944 | -78.46393 | 14148 ft | 377 kts | 338° |
| 2026-04-28 21:18 | 0.24370 | -78.47438 | 14555 ft | 382 kts | 338° |
| 2026-04-28 21:18 | 0.26822 | -78.48492 | 15002 ft | 385 kts | 339° |
| 2026-04-28 21:18 | 0.29296 | -78.49541 | 15464 ft | 387 kts | 339° |
| 2026-04-28 21:19 | 0.31790 | -78.50581 | 15904 ft | 390 kts | 339° |
| 2026-04-28 21:19 | 0.34304 | -78.51620 | 16373 ft | 392 kts | 340° |
| 2026-04-28 21:19 | 0.36836 | -78.52663 | 16786 ft | 395 kts | 340° |
| 2026-04-28 21:19 | 0.39389 | -78.53711 | 17228 ft | 398 kts | 340° |
| 2026-04-28 21:20 | 0.41958 | -78.54762 | 17699 ft | 400 kts | 339° |
| 2026-04-28 21:20 | 0.44539 | -78.55818 | 18151 ft | 402 kts | 339° |
| 2026-04-28 21:20 | 0.47135 | -78.56885 | 18551 ft | 405 kts | 339° |
| 2026-04-28 21:20 | 0.49788 | -78.57837 | 18896 ft | 406 kts | 347° |
| 2026-04-28 21:21 | 0.52562 | -78.58347 | 19253 ft | 406 kts | 354° |
| 2026-04-28 21:21 | 0.55372 | -78.58710 | 19617 ft | 408 kts | 355° |
| 2026-04-28 21:21 | 0.58195 | -78.59074 | 19983 ft | 411 kts | 355° |
| 2026-04-28 21:21 | 0.61038 | -78.59442 | 20322 ft | 413 kts | 354° |
| 2026-04-28 21:22 | 0.63898 | -78.59813 | 20692 ft | 416 kts | 355° |
| 2026-04-28 21:22 | 0.66775 | -78.60188 | 21038 ft | 418 kts | 355° |
| 2026-04-28 21:22 | 0.69667 | -78.60568 | 21377 ft | 420 kts | 354° |
| 2026-04-28 21:22 | 0.71593 | -78.60821 | 21598 ft | 422 kts | 355° |
| 2026-04-28 21:23 | 0.75503 | -78.61332 | 21996 ft | 425 kts | 354° |
| 2026-04-28 21:23 | 0.78448 | -78.61714 | 22320 ft | 428 kts | 354° |
| 2026-04-28 21:23 | 0.81410 | -78.62099 | 22643 ft | 430 kts | 354° |
| 2026-04-28 21:23 | 0.84387 | -78.62486 | 22958 ft | 433 kts | 354° |
| 2026-04-28 21:24 | 0.87380 | -78.62877 | 23257 ft | 435 kts | 354° |
| 2026-04-28 21:24 | 0.90388 | -78.63268 | 23519 ft | 437 kts | 354° |
| 2026-04-28 21:24 | 0.93411 | -78.63661 | 23771 ft | 439 kts | 354° |
| 2026-04-28 21:24 | 0.96447 | -78.64058 | 24014 ft | 441 kts | 354° |
| 2026-04-28 21:25 | 0.99495 | -78.64456 | 24258 ft | 443 kts | 354° |
| 2026-04-28 21:25 | 1.02556 | -78.64852 | 24512 ft | 444 kts | 354° |
| 2026-04-28 21:25 | 1.05628 | -78.65249 | 24706 ft | 446 kts | 354° |
| 2026-04-28 21:25 | 1.08712 | -78.65650 | 24935 ft | 448 kts | 354° |
| 2026-04-28 21:26 | 1.11807 | -78.66056 | 25163 ft | 449 kts | 353° |
| 2026-04-28 21:26 | 1.14910 | -78.66464 | 25384 ft | 451 kts | 353° |
| 2026-04-28 21:26 | 1.18030 | -78.66874 | 25604 ft | 453 kts | 353° |
| 2026-04-28 21:26 | 1.21162 | -78.67284 | 25789 ft | 455 kts | 353° |
| 2026-04-28 21:27 | 1.24304 | -78.67693 | 26013 ft | 456 kts | 353° |
| 2026-04-28 21:27 | 1.27457 | -78.68102 | 26233 ft | 458 kts | 353° |
| 2026-04-28 21:27 | 1.30620 | -78.68510 | 26446 ft | 459 kts | 353° |
| 2026-04-28 21:27 | 1.33776 | -78.68919 | 26646 ft | 461 kts | 353° |
| 2026-04-28 21:28 | 1.36961 | -78.69325 | 26817 ft | 462 kts | 353° |
| 2026-04-28 21:28 | 1.40115 | -78.69717 | 27016 ft | 464 kts | 354° |
| 2026-04-28 21:28 | 1.43323 | -78.70108 | 27212 ft | 465 kts | 354° |
| 2026-04-28 21:28 | 1.46541 | -78.70497 | 27405 ft | 467 kts | 354° |
| 2026-04-28 21:29 | 1.49770 | -78.70889 | 27594 ft | 468 kts | 354° |
| 2026-04-28 21:29 | 1.53009 | -78.71288 | 27738 ft | 470 kts | 353° |
| 2026-04-28 21:29 | 1.56261 | -78.71692 | 27912 ft | 472 kts | 353° |
| 2026-04-28 21:29 | 1.59523 | -78.72100 | 28081 ft | 473 kts | 353° |
| 2026-04-28 21:30 | 1.62795 | -78.72509 | 28248 ft | 475 kts | 353° |
| 2026-04-28 21:30 | 1.66072 | -78.72914 | 28411 ft | 476 kts | 353° |
| 2026-04-28 21:30 | 1.69364 | -78.73320 | 28568 ft | 477 kts | 353° |
| 2026-04-28 21:30 | 1.72664 | -78.73725 | 28731 ft | 478 kts | 353° |
| 2026-04-28 21:31 | 1.75972 | -78.74131 | 28895 ft | 480 kts | 353° |
| 2026-04-28 21:31 | 1.79289 | -78.74539 | 29046 ft | 481 kts | 353° |
| 2026-04-28 21:31 | 1.82614 | -78.74947 | 29199 ft | 482 kts | 353° |
| 2026-04-28 21:31 | 1.85948 | -78.75345 | 29348 ft | 483 kts | 353° |
| 2026-04-28 21:32 | 1.89292 | -78.75732 | 29488 ft | 484 kts | 354° |
| 2026-04-28 21:32 | 1.92646 | -78.76108 | 29638 ft | 485 kts | 354° |
| 2026-04-28 21:32 | 1.95986 | -78.76479 | 29819 ft | 485 kts | 354° |
| 2026-04-28 21:32 | 1.99341 | -78.76857 | 30003 ft | 485 kts | 354° |
| 2026-04-28 21:33 | 2.02694 | -78.77241 | 30179 ft | 485 kts | 353° |
| 2026-04-28 21:33 | 2.06041 | -78.77630 | 30370 ft | 484 kts | 353° |
| 2026-04-28 21:33 | 2.09382 | -78.78018 | 30555 ft | 483 kts | 353° |
| 2026-04-28 21:33 | 2.12719 | -78.78406 | 30734 ft | 482 kts | 353° |
| 2026-04-28 21:34 | 2.16051 | -78.78794 | 30925 ft | 482 kts | 353° |
| 2026-04-28 21:34 | 2.19378 | -78.79177 | 31111 ft | 481 kts | 353° |
| 2026-04-28 21:34 | 2.22701 | -78.79557 | 31303 ft | 480 kts | 353° |
| 2026-04-28 21:34 | 2.26018 | -78.79938 | 31496 ft | 480 kts | 353° |
| 2026-04-28 21:35 | 2.29332 | -78.80320 | 31676 ft | 479 kts | 353° |
| 2026-04-28 21:35 | 2.32638 | -78.80698 | 31871 ft | 478 kts | 353° |
| 2026-04-28 21:35 | 2.35944 | -78.81077 | 32054 ft | 478 kts | 353° |
| 2026-04-28 21:35 | 2.39246 | -78.81458 | 32248 ft | 477 kts | 353° |
| 2026-04-28 21:36 | 2.42543 | -78.81837 | 32442 ft | 477 kts | 353° |
| 2026-04-28 21:36 | 2.45837 | -78.82216 | 32622 ft | 476 kts | 353° |
| 2026-04-28 21:36 | 2.49125 | -78.82592 | 32828 ft | 475 kts | 353° |
| 2026-04-28 21:36 | 2.52410 | -78.82969 | 33002 ft | 475 kts | 353° |
| 2026-04-28 21:37 | 2.55691 | -78.83345 | 33196 ft | 474 kts | 353° |
| 2026-04-28 21:37 | 2.58964 | -78.83723 | 33403 ft | 473 kts | 353° |
| 2026-04-28 21:37 | 2.62235 | -78.84103 | 33587 ft | 473 kts | 353° |
| 2026-04-28 21:37 | 2.65497 | -78.84483 | 33790 ft | 472 kts | 353° |
| 2026-04-28 21:38 | 2.71990 | -78.85235 | 33849 ft | 468 kts | 353° |
| 2026-04-28 21:38 | 2.78455 | -78.85973 | 33849 ft | 467 kts | 353° |
| 2026-04-28 21:39 | 2.84913 | -78.86715 | 33849 ft | 467 kts | 353° |
| 2026-04-28 21:39 | 2.91371 | -78.87457 | 33849 ft | 467 kts | 353° |
| 2026-04-28 21:40 | 2.97786 | -78.88196 | 33853 ft | 467 kts | 353° |
| 2026-04-28 21:40 | 3.04248 | -78.88948 | 33853 ft | 468 kts | 353° |
| 2026-04-28 21:41 | 3.10715 | -78.89701 | 33853 ft | 468 kts | 353° |
| 2026-04-28 21:41 | 3.17185 | -78.90445 | 33853 ft | 468 kts | 353° |
| 2026-04-28 21:42 | 3.23657 | -78.91188 | 33857 ft | 468 kts | 353° |
| 2026-04-28 21:42 | 3.30129 | -78.91940 | 33858 ft | 468 kts | 353° |
| 2026-04-28 21:43 | 3.36604 | -78.92687 | 33856 ft | 468 kts | 353° |
| 2026-04-28 21:43 | 3.43081 | -78.93425 | 33856 ft | 468 kts | 353° |
| 2026-04-28 21:44 | 3.49554 | -78.94172 | 33857 ft | 468 kts | 353° |
| 2026-04-28 21:44 | 3.56020 | -78.94923 | 33856 ft | 468 kts | 353° |
| 2026-04-28 21:45 | 3.62488 | -78.95677 | 33855 ft | 468 kts | 353° |
| 2026-04-28 21:45 | 3.68954 | -78.96425 | 33852 ft | 468 kts | 353° |
| 2026-04-28 21:46 | 3.75419 | -78.97163 | 33848 ft | 468 kts | 353° |
| 2026-04-28 21:46 | 3.80800 | -78.97781 | 33838 ft | 469 kts | 353° |
| 2026-04-28 21:47 | 3.87283 | -78.98533 | 33835 ft | 469 kts | 353° |
| 2026-04-28 21:47 | 3.93772 | -78.99287 | 33836 ft | 470 kts | 353° |
| 2026-04-28 21:48 | 4.00272 | -79.00034 | 33838 ft | 470 kts | 353° |
| 2026-04-28 21:48 | 4.06778 | -79.00779 | 33841 ft | 471 kts | 353° |
| 2026-04-28 21:49 | 4.13287 | -79.01531 | 33845 ft | 471 kts | 353° |
| 2026-04-28 21:49 | 4.19803 | -79.02284 | 33844 ft | 472 kts | 353° |
| 2026-04-28 21:50 | 4.26328 | -79.03039 | 33844 ft | 472 kts | 353° |
| 2026-04-28 21:50 | 4.32859 | -79.03790 | 33846 ft | 472 kts | 353° |
| 2026-04-28 21:51 | 4.39392 | -79.04545 | 33845 ft | 473 kts | 353° |
| 2026-04-28 21:51 | 4.45928 | -79.05299 | 33848 ft | 473 kts | 353° |
| 2026-04-28 21:52 | 4.52464 | -79.06060 | 33845 ft | 474 kts | 352° |
| 2026-04-28 21:52 | 4.59030 | -79.06825 | 33829 ft | 476 kts | 352° |
| 2026-04-28 21:53 | 4.65622 | -79.07592 | 33826 ft | 478 kts | 352° |
| 2026-04-28 21:53 | 4.72232 | -79.08354 | 33830 ft | 479 kts | 352° |
| 2026-04-28 21:54 | 4.78852 | -79.09117 | 33834 ft | 479 kts | 352° |
| 2026-04-28 21:54 | 4.85478 | -79.09886 | 33843 ft | 479 kts | 352° |
| 2026-04-28 21:55 | 4.92111 | -79.10652 | 33836 ft | 480 kts | 352° |
| 2026-04-28 21:55 | 4.98712 | -79.11420 | 33840 ft | 481 kts | 352° |
| 2026-04-28 21:56 | 5.05365 | -79.12190 | 33838 ft | 481 kts | 352° |
| 2026-04-28 21:56 | 5.12019 | -79.12968 | 33841 ft | 482 kts | 352° |
| 2026-04-28 21:57 | 5.18680 | -79.13743 | 33845 ft | 482 kts | 352° |
| 2026-04-28 21:57 | 5.25343 | -79.14516 | 33849 ft | 482 kts | 352° |
| 2026-04-28 21:58 | 5.32012 | -79.15279 | 33843 ft | 482 kts | 352° |
| 2026-04-28 21:58 | 5.38685 | -79.16048 | 33844 ft | 483 kts | 352° |
| 2026-04-28 21:59 | 5.45359 | -79.16829 | 33845 ft | 483 kts | 352° |
| 2026-04-28 22:00 | 5.55373 | -79.17996 | 33847 ft | 483 kts | 352° |
| 2026-04-28 22:00 | 5.62054 | -79.18767 | 33853 ft | 483 kts | 351° |
| 2026-04-28 22:01 | 5.68741 | -79.19538 | 33855 ft | 484 kts | 352° |
| 2026-04-28 22:01 | 5.75425 | -79.20310 | 33855 ft | 484 kts | 351° |
| 2026-04-28 22:02 | 5.82111 | -79.21090 | 33855 ft | 484 kts | 351° |
| 2026-04-28 22:02 | 5.88791 | -79.21879 | 33850 ft | 483 kts | 351° |
| 2026-04-28 22:03 | 5.95475 | -79.22653 | 33850 ft | 484 kts | 351° |
| 2026-04-28 22:03 | 6.02160 | -79.23437 | 33853 ft | 483 kts | 351° |
| 2026-04-28 22:04 | 6.08840 | -79.24231 | 33852 ft | 483 kts | 351° |
| 2026-04-28 22:04 | 6.15519 | -79.25026 | 33854 ft | 483 kts | 351° |
| 2026-04-28 22:05 | 6.22200 | -79.25815 | 33859 ft | 483 kts | 351° |
| 2026-04-28 22:05 | 6.28883 | -79.26611 | 33857 ft | 484 kts | 351° |
| 2026-04-28 22:06 | 6.35567 | -79.27411 | 33857 ft | 484 kts | 351° |
| 2026-04-28 22:06 | 6.42244 | -79.28208 | 33861 ft | 483 kts | 351° |
| 2026-04-28 22:07 | 6.48923 | -79.28993 | 33857 ft | 483 kts | 351° |
| 2026-04-28 22:07 | 6.55593 | -79.29785 | 33853 ft | 482 kts | 351° |
| 2026-04-28 22:08 | 6.62213 | -79.30578 | 33852 ft | 482 kts | 351° |
| 2026-04-28 22:08 | 6.68875 | -79.31379 | 33849 ft | 482 kts | 351° |
| 2026-04-28 22:09 | 6.75537 | -79.32162 | 33849 ft | 482 kts | 351° |
| 2026-04-28 22:09 | 6.82196 | -79.32945 | 33846 ft | 482 kts | 350° |
| 2026-04-28 22:10 | 6.88851 | -79.33746 | 33847 ft | 482 kts | 350° |
| 2026-04-28 22:10 | 6.95512 | -79.34543 | 33847 ft | 482 kts | 350° |
| 2026-04-28 22:11 | 7.02174 | -79.35334 | 33847 ft | 482 kts | 350° |
| 2026-04-28 22:11 | 7.08835 | -79.36133 | 33847 ft | 482 kts | 350° |
| 2026-04-28 22:12 | 7.15499 | -79.36921 | 33847 ft | 482 kts | 351° |
| 2026-04-28 22:12 | 7.22161 | -79.37711 | 33850 ft | 482 kts | 350° |
| 2026-04-28 22:13 | 7.28822 | -79.38508 | 33854 ft | 482 kts | 350° |
| 2026-04-28 22:13 | 7.35485 | -79.39297 | 33851 ft | 482 kts | 350° |
| 2026-04-28 22:14 | 7.42149 | -79.40080 | 33850 ft | 482 kts | 351° |
| 2026-04-28 22:14 | 7.48812 | -79.40862 | 33851 ft | 482 kts | 350° |
| 2026-04-28 22:15 | 7.55472 | -79.41647 | 33850 ft | 482 kts | 350° |
| 2026-04-28 22:15 | 7.62125 | -79.42429 | 33851 ft | 481 kts | 350° |
| 2026-04-28 22:16 | 7.68781 | -79.43213 | 33851 ft | 482 kts | 350° |
| 2026-04-28 22:16 | 7.75444 | -79.44002 | 33847 ft | 482 kts | 350° |
| 2026-04-28 22:17 | 7.82068 | -79.44779 | 33839 ft | 482 kts | 350° |
| 2026-04-28 22:17 | 7.88736 | -79.45568 | 33848 ft | 482 kts | 350° |
| 2026-04-28 22:18 | 7.95403 | -79.46356 | 33848 ft | 482 kts | 350° |
| 2026-04-28 22:18 | 8.02069 | -79.47144 | 33846 ft | 482 kts | 350° |
| 2026-04-28 22:19 | 8.08731 | -79.47930 | 33837 ft | 482 kts | 350° |
| 2026-04-28 22:19 | 8.15396 | -79.48712 | 33838 ft | 482 kts | 350° |
| 2026-04-28 22:20 | 8.22061 | -79.49497 | 33848 ft | 482 kts | 350° |
| 2026-04-28 22:20 | 8.28724 | -79.50282 | 33845 ft | 482 kts | 350° |
| 2026-04-28 22:21 | 8.35384 | -79.51066 | 33845 ft | 482 kts | 350° |
| 2026-04-28 22:21 | 8.42043 | -79.51852 | 33844 ft | 482 kts | 350° |
| 2026-04-28 22:22 | 8.48701 | -79.52642 | 33847 ft | 482 kts | 350° |
| 2026-04-28 22:22 | 8.55360 | -79.53425 | 33843 ft | 482 kts | 350° |
| 2026-04-28 22:23 | 8.62019 | -79.54209 | 33842 ft | 482 kts | 349° |
| 2026-04-28 22:23 | 8.68673 | -79.54999 | 33843 ft | 481 kts | 349° |
| 2026-04-28 22:24 | 8.75319 | -79.55793 | 33839 ft | 481 kts | 349° |
| 2026-04-28 22:24 | 8.82024 | -79.56088 | 33835 ft | 485 kts | 359° |
| 2026-04-28 22:25 | 8.88776 | -79.55841 | 33829 ft | 486 kts | 359° |
| 2026-04-28 22:25 | 8.95530 | -79.55614 | 33865 ft | 486 kts | 358° |
| 2026-04-28 22:26 | 9.02241 | -79.55380 | 33865 ft | 486 kts | 358° |
| 2026-04-28 22:26 | 9.09001 | -79.55137 | 33864 ft | 486 kts | 358° |
| 2026-04-28 22:27 | 9.15762 | -79.54897 | 33859 ft | 486 kts | 358° |
| 2026-04-28 22:27 | 9.22527 | -79.54659 | 33868 ft | 486 kts | 358° |
| 2026-04-28 22:28 | 9.29291 | -79.54427 | 33879 ft | 487 kts | 358° |
| 2026-04-28 22:28 | 9.36059 | -79.54189 | 33884 ft | 487 kts | 358° |
| 2026-04-28 22:29 | 9.42825 | -79.53941 | 33886 ft | 486 kts | 358° |
| 2026-04-28 22:29 | 9.49590 | -79.53702 | 33887 ft | 487 kts | 358° |
| 2026-04-28 22:30 | 9.56359 | -79.53472 | 33892 ft | 487 kts | 358° |
| 2026-04-28 22:30 | 9.63130 | -79.53236 | 33891 ft | 487 kts | 358° |
| 2026-04-28 22:31 | 9.69899 | -79.52996 | 33891 ft | 487 kts | 359° |
| 2026-04-28 22:31 | 9.76664 | -79.52750 | 33888 ft | 486 kts | 359° |
| 2026-04-28 22:32 | 9.83428 | -79.52510 | 33890 ft | 486 kts | 359° |
| 2026-04-28 22:32 | 9.90190 | -79.52275 | 33903 ft | 485 kts | 358° |
| 2026-04-28 22:33 | 9.96918 | -79.52037 | 33924 ft | 482 kts | 359° |
| 2026-04-28 22:33 | 10.02522 | -79.51835 | 33925 ft | 480 kts | 358° |
| 2026-04-28 22:34 | 10.03603 | -79.51796 | 33924 ft | 480 kts | 359° |
| 2026-04-28 22:34 | 10.12468 | -79.51480 | 33921 ft | 478 kts | 359° |
| 2026-04-28 22:35 | 10.22900 | -79.51111 | 33913 ft | 477 kts | 359° |
| 2026-04-28 22:35 | 10.29525 | -79.50875 | 33908 ft | 476 kts | 359° |
| 2026-04-28 22:36 | 10.35025 | -79.50684 | 33901 ft | 476 kts | 359° |
| 2026-04-28 22:36 | 10.40526 | -79.50493 | 33913 ft | 476 kts | 359° |
| 2026-04-28 22:37 | 10.49329 | -79.50179 | 33899 ft | 475 kts | 359° |
| 2026-04-28 22:37 | 10.55941 | -79.49940 | 33899 ft | 475 kts | 359° |
| 2026-04-28 22:38 | 10.62552 | -79.49690 | 33897 ft | 475 kts | 359° |
| 2026-04-28 22:38 | 10.69163 | -79.49435 | 33899 ft | 475 kts | 359° |
| 2026-04-28 22:39 | 10.75773 | -79.49185 | 33896 ft | 475 kts | 359° |
| 2026-04-28 22:39 | 10.82382 | -79.48943 | 33896 ft | 475 kts | 359° |
| 2026-04-28 22:40 | 10.88992 | -79.48688 | 33892 ft | 475 kts | 359° |
| 2026-04-28 22:40 | 10.95602 | -79.48429 | 33897 ft | 475 kts | 359° |
| 2026-04-28 22:41 | 11.02209 | -79.48182 | 33895 ft | 475 kts | 359° |
| 2026-04-28 22:41 | 11.08820 | -79.47937 | 33893 ft | 475 kts | 359° |
| 2026-04-28 22:42 | 11.15430 | -79.47684 | 33907 ft | 475 kts | 359° |
| 2026-04-28 22:42 | 11.22037 | -79.47430 | 33906 ft | 475 kts | 359° |
| 2026-04-28 22:43 | 11.28640 | -79.47178 | 33902 ft | 475 kts | 359° |
| 2026-04-28 22:43 | 11.35243 | -79.46924 | 33900 ft | 475 kts | 359° |
| 2026-04-28 22:44 | 11.41845 | -79.46675 | 33902 ft | 475 kts | 359° |
| 2026-04-28 22:44 | 11.48445 | -79.46430 | 33903 ft | 475 kts | 359° |
| 2026-04-28 22:45 | 11.55045 | -79.46174 | 33906 ft | 474 kts | 359° |
| 2026-04-28 22:45 | 11.61643 | -79.45926 | 33912 ft | 474 kts | 359° |
| 2026-04-28 22:46 | 11.68236 | -79.45671 | 33909 ft | 474 kts | 359° |
| 2026-04-28 22:46 | 11.74833 | -79.45419 | 33908 ft | 474 kts | 359° |
| 2026-04-28 22:47 | 11.81430 | -79.45163 | 33907 ft | 474 kts | 359° |
| 2026-04-28 22:47 | 11.88026 | -79.44909 | 33915 ft | 474 kts | 359° |
| 2026-04-28 22:48 | 11.94617 | -79.44662 | 33912 ft | 474 kts | 359° |
| 2026-04-28 22:48 | 12.01224 | -79.44414 | 34024 ft | 477 kts | 359° |
| 2026-04-28 22:48 | 12.04548 | -79.44285 | 34188 ft | 478 kts | 359° |
| 2026-04-28 22:49 | 12.07876 | -79.44157 | 34367 ft | 479 kts | 359° |
| 2026-04-28 22:49 | 12.11203 | -79.44029 | 34575 ft | 478 kts | 359° |
| 2026-04-28 22:49 | 12.14528 | -79.43899 | 34765 ft | 478 kts | 359° |
| 2026-04-28 22:49 | 12.17807 | -79.43771 | 34953 ft | 478 kts | 359° |
| 2026-04-28 22:50 | 12.21172 | -79.43643 | 35149 ft | 477 kts | 358° |
| 2026-04-28 22:50 | 12.24492 | -79.43516 | 35315 ft | 477 kts | 358° |
| 2026-04-28 22:50 | 12.27764 | -79.43392 | 35484 ft | 477 kts | 358° |
| 2026-04-28 22:50 | 12.31083 | -79.43265 | 35660 ft | 477 kts | 358° |
| 2026-04-28 22:51 | 12.34398 | -79.43139 | 35839 ft | 477 kts | 358° |
| 2026-04-28 22:51 | 12.41030 | -79.42882 | 35914 ft | 477 kts | 358° |
| 2026-04-28 22:52 | 12.47654 | -79.42630 | 35909 ft | 476 kts | 358° |
| 2026-04-28 22:52 | 12.54267 | -79.42366 | 35915 ft | 475 kts | 358° |
| 2026-04-28 22:53 | 12.60874 | -79.42116 | 35912 ft | 475 kts | 358° |
| 2026-04-28 22:53 | 12.67480 | -79.41873 | 35914 ft | 475 kts | 358° |
| 2026-04-28 22:54 | 12.74089 | -79.41615 | 35922 ft | 475 kts | 358° |
| 2026-04-28 22:54 | 12.80698 | -79.41351 | 35921 ft | 475 kts | 358° |
| 2026-04-28 22:55 | 12.87305 | -79.41102 | 35922 ft | 475 kts | 358° |
| 2026-04-28 22:55 | 12.93915 | -79.40853 | 35930 ft | 475 kts | 358° |
| 2026-04-28 22:56 | 13.00522 | -79.40598 | 35940 ft | 475 kts | 358° |
| 2026-04-28 22:56 | 13.07123 | -79.40344 | 35939 ft | 475 kts | 358° |
| 2026-04-28 22:57 | 13.13721 | -79.40090 | 35935 ft | 474 kts | 358° |
| 2026-04-28 22:57 | 13.20318 | -79.39828 | 35934 ft | 474 kts | 358° |
| 2026-04-28 22:58 | 13.26912 | -79.39576 | 35935 ft | 474 kts | 358° |
| 2026-04-28 22:58 | 13.33505 | -79.39326 | 35941 ft | 474 kts | 358° |
| 2026-04-28 22:59 | 13.40096 | -79.39070 | 35943 ft | 474 kts | 358° |
| 2026-04-28 22:59 | 13.46684 | -79.38813 | 35940 ft | 474 kts | 358° |
| 2026-04-28 23:00 | 13.53268 | -79.38554 | 35940 ft | 474 kts | 358° |
| 2026-04-28 23:00 | 13.58745 | -79.38343 | 35940 ft | 474 kts | 358° |
| 2026-04-28 23:01 | 13.65333 | -79.38085 | 35950 ft | 474 kts | 358° |
| 2026-04-28 23:01 | 13.71919 | -79.37826 | 35948 ft | 474 kts | 358° |
| 2026-04-28 23:02 | 13.78504 | -79.37571 | 35947 ft | 473 kts | 357° |
| 2026-04-28 23:02 | 13.85087 | -79.37318 | 35948 ft | 473 kts | 357° |
| 2026-04-28 23:03 | 13.91669 | -79.37064 | 35940 ft | 473 kts | 357° |
| 2026-04-28 23:03 | 13.98247 | -79.36806 | 35953 ft | 473 kts | 358° |
| 2026-04-28 23:04 | 14.04826 | -79.36547 | 35952 ft | 473 kts | 357° |
| 2026-04-28 23:04 | 14.14687 | -79.36172 | 35955 ft | 473 kts | 357° |
| 2026-04-28 23:05 | 14.21258 | -79.35918 | 35946 ft | 472 kts | 357° |
| 2026-04-28 23:05 | 14.27829 | -79.35660 | 35953 ft | 472 kts | 357° |
| 2026-04-28 23:06 | 14.34355 | -79.35403 | 35949 ft | 472 kts | 357° |
| 2026-04-28 23:06 | 14.40967 | -79.35144 | 35959 ft | 472 kts | 357° |
| 2026-04-28 23:07 | 14.47487 | -79.34890 | 35950 ft | 472 kts | 357° |
| 2026-04-28 23:07 | 14.54054 | -79.34643 | 35950 ft | 472 kts | 357° |
| 2026-04-28 23:08 | 14.60621 | -79.34387 | 35956 ft | 472 kts | 357° |
| 2026-04-28 23:08 | 14.67189 | -79.34119 | 35955 ft | 472 kts | 357° |
| 2026-04-28 23:09 | 14.73756 | -79.33861 | 35963 ft | 472 kts | 357° |
| 2026-04-28 23:09 | 14.80320 | -79.33609 | 35957 ft | 472 kts | 357° |
| 2026-04-28 23:10 | 14.86883 | -79.33349 | 35958 ft | 472 kts | 357° |
| 2026-04-28 23:10 | 14.93444 | -79.33092 | 35957 ft | 472 kts | 357° |
| 2026-04-28 23:11 | 15.00005 | -79.32839 | 35964 ft | 472 kts | 357° |
| 2026-04-28 23:11 | 15.06563 | -79.32604 | 35972 ft | 471 kts | 356° |
| 2026-04-28 23:12 | 15.13070 | -79.32395 | 35971 ft | 471 kts | 356° |
| 2026-04-28 23:12 | 15.19620 | -79.32185 | 35970 ft | 471 kts | 356° |
| 2026-04-28 23:13 | 15.26169 | -79.31971 | 35971 ft | 471 kts | 356° |
| 2026-04-28 23:13 | 15.32716 | -79.31752 | 35970 ft | 471 kts | 356° |
| 2026-04-28 23:14 | 15.39264 | -79.31534 | 35983 ft | 471 kts | 356° |
| 2026-04-28 23:14 | 15.45808 | -79.31322 | 35978 ft | 470 kts | 356° |
| 2026-04-28 23:15 | 15.52349 | -79.31113 | 35980 ft | 470 kts | 356° |
| 2026-04-28 23:15 | 15.58890 | -79.30882 | 35979 ft | 470 kts | 356° |
| 2026-04-28 23:16 | 15.65425 | -79.30651 | 35977 ft | 470 kts | 356° |
| 2026-04-28 23:16 | 15.71962 | -79.30442 | 35976 ft | 470 kts | 356° |
| 2026-04-28 23:17 | 15.78454 | -79.30227 | 35985 ft | 470 kts | 356° |
| 2026-04-28 23:17 | 15.84983 | -79.30004 | 35986 ft | 469 kts | 356° |
| 2026-04-28 23:18 | 15.91508 | -79.29793 | 35985 ft | 469 kts | 356° |
| 2026-04-28 23:18 | 15.98030 | -79.29576 | 35983 ft | 469 kts | 356° |
| 2026-04-28 23:19 | 16.04551 | -79.29356 | 35980 ft | 469 kts | 356° |
| 2026-04-28 23:19 | 16.11066 | -79.29135 | 35997 ft | 468 kts | 356° |
| 2026-04-28 23:20 | 16.17577 | -79.28922 | 35995 ft | 468 kts | 356° |
| 2026-04-28 23:20 | 16.24082 | -79.28704 | 35993 ft | 468 kts | 356° |
| 2026-04-28 23:21 | 16.30584 | -79.28483 | 35993 ft | 467 kts | 356° |
| 2026-04-28 23:21 | 16.37083 | -79.28270 | 35991 ft | 467 kts | 356° |
| 2026-04-28 23:22 | 16.43582 | -79.28052 | 36000 ft | 467 kts | 356° |
| 2026-04-28 23:22 | 16.50076 | -79.27829 | 35999 ft | 467 kts | 356° |
| 2026-04-28 23:23 | 16.56563 | -79.27610 | 35997 ft | 466 kts | 356° |
| 2026-04-28 23:23 | 16.63045 | -79.27392 | 35995 ft | 466 kts | 356° |
| 2026-04-28 23:24 | 16.69524 | -79.27177 | 35995 ft | 466 kts | 356° |
| 2026-04-28 23:24 | 16.76001 | -79.26963 | 35994 ft | 466 kts | 356° |
| 2026-04-28 23:25 | 16.82473 | -79.26741 | 36006 ft | 465 kts | 356° |
| 2026-04-28 23:25 | 16.88942 | -79.26526 | 36005 ft | 465 kts | 356° |
| 2026-04-28 23:26 | 16.95408 | -79.26314 | 36003 ft | 465 kts | 356° |
| 2026-04-28 23:26 | 17.01829 | -79.26093 | 36002 ft | 465 kts | 356° |
| 2026-04-28 23:27 | 17.08293 | -79.25864 | 36002 ft | 465 kts | 356° |
| 2026-04-28 23:27 | 17.14755 | -79.25649 | 36014 ft | 464 kts | 357° |
| 2026-04-28 23:28 | 17.21213 | -79.25433 | 36012 ft | 464 kts | 357° |
| 2026-04-28 23:28 | 17.27667 | -79.25211 | 36014 ft | 464 kts | 357° |
| 2026-04-28 23:29 | 17.34115 | -79.24989 | 36005 ft | 464 kts | 357° |
| 2026-04-28 23:29 | 17.40566 | -79.24769 | 36005 ft | 464 kts | 357° |
| 2026-04-28 23:30 | 17.47015 | -79.24554 | 36026 ft | 464 kts | 357° |
| 2026-04-28 23:30 | 17.53461 | -79.24334 | 36018 ft | 463 kts | 357° |
| 2026-04-28 23:31 | 17.59902 | -79.24120 | 36024 ft | 463 kts | 357° |
| 2026-04-28 23:31 | 17.66340 | -79.23900 | 36019 ft | 463 kts | 357° |
| 2026-04-28 23:32 | 17.72776 | -79.23678 | 36022 ft | 463 kts | 357° |
| 2026-04-28 23:32 | 17.79212 | -79.23457 | 36017 ft | 463 kts | 357° |
| 2026-04-28 23:33 | 17.85646 | -79.23240 | 36013 ft | 463 kts | 357° |
| 2026-04-28 23:33 | 17.92079 | -79.23023 | 36012 ft | 463 kts | 357° |
| 2026-04-28 23:34 | 17.98509 | -79.22799 | 36014 ft | 463 kts | 357° |
| 2026-04-28 23:34 | 18.04942 | -79.22580 | 36019 ft | 462 kts | 357° |
| 2026-04-28 23:35 | 18.11375 | -79.22365 | 36015 ft | 462 kts | 357° |
| 2026-04-28 23:35 | 18.17810 | -79.22148 | 36019 ft | 463 kts | 357° |
| 2026-04-28 23:36 | 18.24247 | -79.21919 | 36019 ft | 463 kts | 357° |
| 2026-04-28 23:36 | 18.30686 | -79.21693 | 36017 ft | 463 kts | 357° |
| 2026-04-28 23:37 | 18.37127 | -79.21471 | 36017 ft | 463 kts | 357° |
| 2026-04-28 23:37 | 18.43568 | -79.21258 | 36022 ft | 463 kts | 357° |
| 2026-04-28 23:38 | 18.50010 | -79.21043 | 36033 ft | 463 kts | 357° |
| 2026-04-28 23:38 | 18.56449 | -79.20820 | 36033 ft | 463 kts | 357° |
| 2026-04-28 23:39 | 18.62890 | -79.20597 | 36030 ft | 463 kts | 357° |
| 2026-04-28 23:39 | 18.69288 | -79.20375 | 36032 ft | 463 kts | 357° |
| 2026-04-28 23:40 | 18.75728 | -79.20151 | 36032 ft | 463 kts | 357° |
| 2026-04-28 23:40 | 18.82167 | -79.19929 | 36046 ft | 463 kts | 358° |
| 2026-04-28 23:41 | 18.88600 | -79.19704 | 36044 ft | 462 kts | 357° |
| 2026-04-28 23:41 | 18.95025 | -79.19483 | 36045 ft | 462 kts | 357° |
| 2026-04-28 23:42 | 19.01444 | -79.19265 | 36043 ft | 461 kts | 357° |
| 2026-04-28 23:42 | 19.07857 | -79.19043 | 36043 ft | 461 kts | 357° |
| 2026-04-28 23:43 | 19.14272 | -79.18823 | 36053 ft | 461 kts | 358° |
| 2026-04-28 23:43 | 19.20680 | -79.18598 | 36055 ft | 460 kts | 358° |
| 2026-04-28 23:44 | 19.27080 | -79.18371 | 36051 ft | 460 kts | 358° |
| 2026-04-28 23:44 | 19.33473 | -79.18154 | 36049 ft | 459 kts | 358° |
| 2026-04-28 23:45 | 19.39862 | -79.17938 | 36050 ft | 459 kts | 357° |
| 2026-04-28 23:45 | 19.46249 | -79.17721 | 36048 ft | 459 kts | 358° |
| 2026-04-28 23:46 | 19.52632 | -79.17492 | 36057 ft | 459 kts | 358° |
| 2026-04-28 23:46 | 19.59006 | -79.17266 | 36055 ft | 458 kts | 358° |
| 2026-04-28 23:47 | 19.65375 | -79.17043 | 36052 ft | 458 kts | 358° |
| 2026-04-28 23:47 | 19.71694 | -79.16821 | 36049 ft | 458 kts | 358° |
| 2026-04-28 23:48 | 19.78057 | -79.16600 | 36051 ft | 457 kts | 358° |
| 2026-04-28 23:48 | 19.84417 | -79.16382 | 36063 ft | 457 kts | 358° |
| 2026-04-28 23:49 | 19.90767 | -79.16160 | 36060 ft | 456 kts | 358° |
| 2026-04-28 23:49 | 19.97110 | -79.15940 | 36057 ft | 456 kts | 358° |
| 2026-04-28 23:50 | 20.03447 | -79.15734 | 36057 ft | 455 kts | 357° |
| 2026-04-28 23:50 | 20.08707 | -79.15617 | 36055 ft | 455 kts | 357° |
| 2026-04-28 23:51 | 20.15035 | -79.15497 | 36065 ft | 455 kts | 357° |
| 2026-04-28 23:51 | 20.21359 | -79.15373 | 36062 ft | 454 kts | 357° |
| 2026-04-28 23:52 | 20.28702 | -79.15212 | 36060 ft | 454 kts | 357° |
| 2026-04-28 23:52 | 20.33993 | -79.15087 | 36058 ft | 454 kts | 357° |
| 2026-04-28 23:53 | 20.40305 | -79.14951 | 36057 ft | 454 kts | 357° |
| 2026-04-28 23:53 | 20.46575 | -79.14813 | 36063 ft | 454 kts | 357° |
| 2026-04-28 23:54 | 20.52880 | -79.14663 | 36068 ft | 453 kts | 357° |
| 2026-04-28 23:54 | 20.59183 | -79.14518 | 36064 ft | 453 kts | 357° |
| 2026-04-28 23:55 | 20.65482 | -79.14384 | 36059 ft | 453 kts | 356° |
| 2026-04-28 23:55 | 20.71778 | -79.14256 | 36057 ft | 452 kts | 357° |
| 2026-04-28 23:56 | 20.78073 | -79.14109 | 36057 ft | 452 kts | 357° |
| 2026-04-28 23:56 | 20.84366 | -79.13962 | 36068 ft | 452 kts | 356° |
| 2026-04-28 23:57 | 20.90650 | -79.13828 | 36064 ft | 451 kts | 356° |
| 2026-04-28 23:57 | 20.96930 | -79.13687 | 36062 ft | 451 kts | 357° |
| 2026-04-28 23:58 | 21.03206 | -79.13543 | 36061 ft | 451 kts | 357° |
| 2026-04-28 23:58 | 21.09475 | -79.13403 | 36061 ft | 451 kts | 356° |
| 2026-04-28 23:59 | 21.15746 | -79.13262 | 36058 ft | 451 kts | 357° |
| 2026-04-28 23:59 | 21.22016 | -79.13119 | 36060 ft | 451 kts | 356° |
| 2026-04-29 00:00 | 21.28285 | -79.12984 | 36059 ft | 451 kts | 356° |
| 2026-04-29 00:00 | 21.34555 | -79.12851 | 36059 ft | 451 kts | 356° |
| 2026-04-29 00:01 | 21.40824 | -79.12714 | 36059 ft | 451 kts | 356° |
| 2026-04-29 00:01 | 21.47092 | -79.12573 | 36075 ft | 450 kts | 357° |
| 2026-04-29 00:02 | 21.53355 | -79.12432 | 36073 ft | 450 kts | 356° |
| 2026-04-29 00:02 | 21.59612 | -79.12294 | 36073 ft | 450 kts | 357° |
| 2026-04-29 00:03 | 21.65865 | -79.12146 | 36070 ft | 450 kts | 358° |
| 2026-04-29 00:03 | 21.72037 | -79.10819 | 36073 ft | 460 kts | 18° |
| 2026-04-29 00:04 | 21.77820 | -79.07914 | 36079 ft | 462 kts | 21° |
| 2026-04-29 00:04 | 21.83662 | -79.04915 | 36086 ft | 462 kts | 21° |
| 2026-04-29 00:05 | 21.89429 | -79.01964 | 36082 ft | 462 kts | 21° |
| 2026-04-29 00:05 | 21.95234 | -78.98984 | 36079 ft | 462 kts | 21° |
| 2026-04-29 00:06 | 22.01036 | -78.95992 | 36080 ft | 462 kts | 21° |
| 2026-04-29 00:06 | 22.06840 | -78.93000 | 36078 ft | 462 kts | 21° |
| 2026-04-29 00:07 | 22.12644 | -78.90016 | 36100 ft | 462 kts | 21° |
| 2026-04-29 00:07 | 22.18438 | -78.87029 | 36097 ft | 461 kts | 21° |
| 2026-04-29 00:08 | 22.24222 | -78.84046 | 36099 ft | 461 kts | 21° |
| 2026-04-29 00:08 | 22.30007 | -78.81068 | 36096 ft | 460 kts | 21° |
| 2026-04-29 00:09 | 22.35787 | -78.78082 | 36094 ft | 460 kts | 21° |
| 2026-04-29 00:09 | 22.41561 | -78.75087 | 36104 ft | 460 kts | 21° |
| 2026-04-29 00:10 | 22.47315 | -78.72096 | 36106 ft | 460 kts | 21° |
| 2026-04-29 00:10 | 22.53083 | -78.69111 | 36103 ft | 459 kts | 21° |
| 2026-04-29 00:11 | 22.58848 | -78.66127 | 36098 ft | 459 kts | 21° |
| 2026-04-29 00:12 | 22.67493 | -78.61631 | 36089 ft | 460 kts | 21° |
| 2026-04-29 00:12 | 22.73284 | -78.58672 | 36243 ft | 460 kts | 16° |
| 2026-04-29 00:12 | 22.76321 | -78.57665 | 36386 ft | 454 kts | 6° |
| 2026-04-29 00:13 | 22.79426 | -78.57232 | 36540 ft | 448 kts | 357° |
| 2026-04-29 00:13 | 22.82516 | -78.57349 | 36709 ft | 441 kts | 348° |
| 2026-04-29 00:13 | 22.85533 | -78.57884 | 36875 ft | 439 kts | 345° |
| 2026-04-29 00:13 | 22.88540 | -78.58453 | 37060 ft | 438 kts | 345° |
| 2026-04-29 00:14 | 22.91544 | -78.59020 | 37226 ft | 438 kts | 345° |
| 2026-04-29 00:14 | 22.94544 | -78.59583 | 37393 ft | 437 kts | 345° |
| 2026-04-29 00:14 | 22.97540 | -78.60145 | 37555 ft | 437 kts | 345° |
| 2026-04-29 00:14 | 23.00532 | -78.60706 | 37728 ft | 436 kts | 345° |
| 2026-04-29 00:15 | 23.03519 | -78.61266 | 37906 ft | 435 kts | 345° |
| 2026-04-29 00:15 | 23.06498 | -78.61829 | 38061 ft | 435 kts | 345° |
| 2026-04-29 00:15 | 23.09475 | -78.62392 | 38103 ft | 434 kts | 345° |
| 2026-04-29 00:16 | 23.15424 | -78.63514 | 38099 ft | 434 kts | 345° |
| 2026-04-29 00:16 | 23.21370 | -78.64639 | 38094 ft | 434 kts | 345° |
| 2026-04-29 00:17 | 23.27274 | -78.65749 | 38103 ft | 434 kts | 345° |
| 2026-04-29 00:17 | 23.33222 | -78.66870 | 38101 ft | 434 kts | 345° |
| 2026-04-29 00:18 | 23.39170 | -78.68003 | 38122 ft | 434 kts | 345° |
| 2026-04-29 00:18 | 23.45120 | -78.69141 | 38105 ft | 434 kts | 345° |
| 2026-04-29 00:19 | 23.51075 | -78.70267 | 38109 ft | 434 kts | 345° |
| 2026-04-29 00:19 | 23.57032 | -78.71392 | 38111 ft | 435 kts | 345° |
| 2026-04-29 00:20 | 23.62991 | -78.72517 | 38111 ft | 435 kts | 345° |
| 2026-04-29 00:20 | 23.68949 | -78.73653 | 38131 ft | 435 kts | 345° |
| 2026-04-29 00:21 | 23.74907 | -78.74791 | 38118 ft | 435 kts | 345° |
| 2026-04-29 00:21 | 23.80866 | -78.75927 | 38117 ft | 435 kts | 345° |
| 2026-04-29 00:22 | 23.86820 | -78.77071 | 38125 ft | 435 kts | 345° |
| 2026-04-29 00:22 | 23.92778 | -78.78214 | 38123 ft | 435 kts | 345° |
| 2026-04-29 00:23 | 23.93787 | -78.78407 | 38123 ft | 435 kts | 345° |